Terminal Aerodrome Forecast
Issued by NWS Atlanta, GA

Home | Current Version | Previous Version | Text Only | Print | Product List | Glossary On
Versions: 1 2 3 4 5 6 7 8 9 10 11 12 13 14 15 16 17 18
000
FTUS42 KFFC 291124
TAFCSG
TAF
KCSG 291124Z 2912/3012 27004KT P6SM FEW045 SCT250
     FM291400 26006KT P6SM SCT035
     FM291800 28010KT P6SM SCT050
      TEMPO 2919/2923 6SM -TSRA BKN035CB
     FM300100 26004KT P6SM SCT070=

USA.gov is the U.S. government's official web portal to all federal, state and local government web resources and services.